createdAt,value
2019-05-18T00:01:56.353Z,63.90
2019-05-18T00:04:23.736Z,64.10
2019-05-18T00:06:51.231Z,64.40
2019-05-18T00:09:18.811Z,64.40
2019-05-18T00:11:46.294Z,64.60
2019-05-18T00:14:14.085Z,64.00
2019-05-18T00:16:41.521Z,63.50
2019-05-18T00:19:09.319Z,64.10
2019-05-18T00:21:36.782Z,63.70
2019-05-18T00:24:04.256Z,63.60
2019-05-18T00:26:31.754Z,63.30
2019-05-18T00:28:59.534Z,64.00
2019-05-18T00:31:26.834Z,64.20
2019-05-18T00:33:54.668Z,65.10
2019-05-18T00:36:22.442Z,65.50
2019-05-18T00:38:51.083Z,66.00
2019-05-18T00:41:18.819Z,66.90
2019-05-18T00:43:46.301Z,67.70
2019-05-18T00:46:14.651Z,68.20
2019-05-18T00:48:42.124Z,69.00
2019-05-18T00:51:09.727Z,69.60
2019-05-18T00:53:37.505Z,69.50
2019-05-18T00:56:05.326Z,69.40
2019-05-18T00:58:33.206Z,69.10
2019-05-18T01:01:00.708Z,69.50
2019-05-18T01:03:28.543Z,69.00
2019-05-18T01:05:56.258Z,69.10
2019-05-18T01:08:23.768Z,68.90
2019-05-18T01:10:51.265Z,68.80
2019-05-18T01:13:18.913Z,69.10
2019-05-18T01:15:47.356Z,68.00
2019-05-18T01:18:14.700Z,68.10
2019-05-18T01:20:43.104Z,68.40
2019-05-18T01:23:10.423Z,68.00
2019-05-18T01:25:38.158Z,67.90
2019-05-18T01:28:05.607Z,68.20
2019-05-18T01:30:33.098Z,68.10
2019-05-18T01:33:00.717Z,68.60
2019-05-18T01:35:28.343Z,68.60
2019-05-18T01:37:56.145Z,68.30
2019-05-18T01:40:23.658Z,68.20
2019-05-18T01:42:51.124Z,67.70
2019-05-18T01:45:18.731Z,67.60
2019-05-18T01:47:46.214Z,67.60
2019-05-18T01:50:13.714Z,67.20
2019-05-18T01:52:41.178Z,67.70
2019-05-18T01:55:09.445Z,68.10
2019-05-18T01:57:36.908Z,68.00
2019-05-18T02:00:04.968Z,68.60
2019-05-18T02:02:32.976Z,68.50
2019-05-18T02:05:00.605Z,68.60
2019-05-18T02:07:28.471Z,68.70
2019-05-18T02:09:55.958Z,68.90
2019-05-18T02:12:23.332Z,69.20
2019-05-18T02:14:51.766Z,69.40
2019-05-18T02:17:19.658Z,69.10
2019-05-18T02:19:47.388Z,69.00
2019-05-18T02:22:16.013Z,69.10
2019-05-18T02:24:44.077Z,69.50
2019-05-18T02:27:11.456Z,69.40
2019-05-18T02:29:39.264Z,69.10
2019-05-18T02:32:07.053Z,69.00
2019-05-18T02:34:34.441Z,69.20
2019-05-18T02:37:01.966Z,69.90
2019-05-18T02:39:29.418Z,69.60
2019-05-18T02:41:57.573Z,69.00
2019-05-18T02:44:25.115Z,69.10
2019-05-18T02:46:52.607Z,69.10
2019-05-18T02:49:20.090Z,69.20
2019-05-18T02:51:47.843Z,69.10
2019-05-18T02:54:15.620Z,68.80
2019-05-18T02:56:43.340Z,69.50
2019-05-18T02:59:10.858Z,70.10
2019-05-18T03:01:38.372Z,70.50
2019-05-18T03:04:06.048Z,70.20
2019-05-18T03:06:33.630Z,70.70
2019-05-18T03:09:00.969Z,70.70
2019-05-18T03:11:28.366Z,70.50
2019-05-18T03:13:55.767Z,69.80
2019-05-18T03:16:23.569Z,69.90
2019-05-18T03:19:06.930Z,70.10
2019-05-18T03:21:20.866Z,70.10
2019-05-18T03:23:48.735Z,70.60
2019-05-18T03:26:16.261Z,71.10
2019-05-18T03:28:44.273Z,71.10
2019-05-18T03:31:12.141Z,70.60
2019-05-18T03:33:39.881Z,71.20
2019-05-18T03:36:09.211Z,71.10
2019-05-18T03:38:36.521Z,70.70
2019-05-18T03:41:03.841Z,70.90
2019-05-18T03:43:31.306Z,70.80
2019-05-18T03:45:58.668Z,71.00
2019-05-18T03:48:26.541Z,71.30
2019-05-18T03:50:53.898Z,71.50
2019-05-18T03:53:21.408Z,71.90
2019-05-18T03:55:49.083Z,71.80
2019-05-18T03:58:16.808Z,71.90
2019-05-18T04:00:44.136Z,71.70
2019-05-18T04:03:11.639Z,72.10
2019-05-18T04:05:39.127Z,71.80
2019-05-18T04:08:07.095Z,71.40
2019-05-18T04:10:34.591Z,72.10
2019-05-18T04:13:02.363Z,72.80
2019-05-18T04:15:30.128Z,72.50
2019-05-18T04:17:57.482Z,72.50
2019-05-18T04:20:25.007Z,72.40
2019-05-18T04:22:52.776Z,72.90
2019-05-18T04:25:20.120Z,72.80
2019-05-18T04:27:47.610Z,72.60
2019-05-18T04:30:15.084Z,72.60
2019-05-18T04:32:43.091Z,74.00
2019-05-18T04:35:10.613Z,73.90
2019-05-18T04:37:38.103Z,73.50
2019-05-18T04:40:06.160Z,73.70
2019-05-18T04:42:33.771Z,74.00
2019-05-18T04:45:02.427Z,74.50
2019-05-18T04:47:30.468Z,74.80
2019-05-18T04:50:05.253Z,74.70
2019-05-18T04:52:27.410Z,75.10
2019-05-18T04:54:54.844Z,75.80
2019-05-18T04:57:22.552Z,76.50
2019-05-18T04:59:50.616Z,76.20
2019-05-18T05:02:17.980Z,77.10
2019-05-18T05:04:45.452Z,77.00
2019-05-18T05:07:15.641Z,76.50
2019-05-18T05:09:43.949Z,75.70
2019-05-18T05:12:11.701Z,76.10
2019-05-18T05:14:39.076Z,76.40
2019-05-18T05:17:06.823Z,76.80
2019-05-18T05:19:34.330Z,76.50
2019-05-18T05:22:01.849Z,76.30
2019-05-18T05:24:29.294Z,76.60
2019-05-18T05:26:57.142Z,76.70
2019-05-18T05:29:24.820Z,76.50
2019-05-18T05:31:52.201Z,76.40
2019-05-18T05:34:19.599Z,76.20
2019-05-18T05:36:46.994Z,75.80
2019-05-18T05:39:15.746Z,76.00
2019-05-18T05:41:43.229Z,76.10
2019-05-18T05:44:11.424Z,76.60
2019-05-18T05:46:39.482Z,78.00
2019-05-18T05:49:06.874Z,78.40
2019-05-18T05:51:34.715Z,77.10
2019-05-18T05:54:02.085Z,77.30
2019-05-18T05:56:30.244Z,77.80
2019-05-18T05:58:58.298Z,78.10
2019-05-18T06:01:25.674Z,78.70
2019-05-18T06:03:53.095Z,78.90
2019-05-18T06:06:23.074Z,79.10
2019-05-18T06:08:50.189Z,76.20
2019-05-18T06:11:17.948Z,75.30
2019-05-18T06:13:45.708Z,75.10
2019-05-18T06:16:13.181Z,74.90
2019-05-18T06:18:41.008Z,75.00
2019-05-18T06:21:08.467Z,74.00
2019-05-18T06:23:35.769Z,74.00
2019-05-18T06:26:03.266Z,75.50
2019-05-18T06:28:30.787Z,74.10
2019-05-18T06:30:59.268Z,74.20
2019-05-18T06:33:26.640Z,73.80
2019-05-18T06:35:54.056Z,74.90
2019-05-18T06:38:21.426Z,74.50
2019-05-18T06:40:48.925Z,73.90
2019-05-18T06:43:16.917Z,73.70
2019-05-18T06:45:44.364Z,73.00
2019-05-18T06:48:12.032Z,73.70
2019-05-18T06:50:39.695Z,75.00
2019-05-18T06:53:07.220Z,74.20
2019-05-18T06:55:35.180Z,72.60
2019-05-18T06:58:02.751Z,72.30
2019-05-18T07:00:30.859Z,73.50
2019-05-18T07:02:58.335Z,73.10
2019-05-18T07:05:25.801Z,74.30
2019-05-18T07:07:53.436Z,72.80
2019-05-18T07:10:21.093Z,71.80
2019-05-18T07:12:48.895Z,74.90
2019-05-18T07:15:18.212Z,71.80
2019-05-18T07:17:45.580Z,70.10
2019-05-18T07:20:13.052Z,69.40
2019-05-18T07:22:40.845Z,69.40
2019-05-18T07:25:08.983Z,69.90
2019-05-18T07:27:36.818Z,69.30
2019-05-18T07:30:04.359Z,71.50
2019-05-18T07:32:31.842Z,71.00
2019-05-18T07:34:59.206Z,69.80
2019-05-18T07:37:26.703Z,70.80
2019-05-18T07:39:54.165Z,71.40
2019-05-18T07:42:22.226Z,71.30
2019-05-18T07:44:49.614Z,69.60
2019-05-18T07:47:17.128Z,67.90
2019-05-18T07:49:45.015Z,71.60
2019-05-18T07:52:12.336Z,72.40
2019-05-18T07:54:39.915Z,70.30
2019-05-18T07:57:07.312Z,69.60
2019-05-18T07:59:34.719Z,69.30
2019-05-18T08:02:02.216Z,72.30
2019-05-18T08:04:29.944Z,69.20
2019-05-18T08:06:57.435Z,72.30
2019-05-18T08:09:25.425Z,69.70
2019-05-18T08:11:53.213Z,70.70
2019-05-18T08:14:20.710Z,69.40
2019-05-18T08:16:48.481Z,68.50
2019-05-18T08:19:16.397Z,68.20
2019-05-18T08:21:52.705Z,67.50
2019-05-18T08:24:13.666Z,68.50
2019-05-18T08:26:41.229Z,67.20
2019-05-18T08:29:09.153Z,67.30
2019-05-18T08:31:36.536Z,67.20
2019-05-18T08:34:03.923Z,66.20
2019-05-18T08:36:31.610Z,66.70
2019-05-18T08:38:59.118Z,70.10
2019-05-18T08:41:26.860Z,67.70
2019-05-18T08:43:54.364Z,67.10
2019-05-18T08:46:21.865Z,68.10
2019-05-18T08:48:49.990Z,68.20
2019-05-18T08:51:17.719Z,69.10
2019-05-18T08:53:45.468Z,67.20
2019-05-18T08:56:12.816Z,67.20
2019-05-18T08:58:40.211Z,68.50
2019-05-18T09:01:07.524Z,67.30
2019-05-18T09:03:35.428Z,66.20
2019-05-18T09:06:03.239Z,68.10
2019-05-18T09:08:30.564Z,67.00
2019-05-18T09:10:58.180Z,66.20
2019-05-18T09:13:25.906Z,63.90
2019-05-18T09:15:53.594Z,65.70
2019-05-18T09:18:21.367Z,64.70
2019-05-18T09:20:48.823Z,65.40
2019-05-18T09:23:16.473Z,65.70
2019-05-18T09:25:43.890Z,65.50
2019-05-18T09:28:11.347Z,64.90
2019-05-18T09:30:41.188Z,65.30
2019-05-18T09:33:08.560Z,65.10
2019-05-18T09:35:36.059Z,64.50
2019-05-18T09:38:03.404Z,64.20
2019-05-18T09:40:31.436Z,64.20
2019-05-18T09:42:58.847Z,64.50
2019-05-18T09:45:26.345Z,63.20
2019-05-18T09:47:54.169Z,64.10
2019-05-18T09:50:21.688Z,66.20
2019-05-18T09:52:49.596Z,64.00
2019-05-18T09:55:17.583Z,63.50
2019-05-18T09:57:45.070Z,62.60
2019-05-18T10:00:12.935Z,62.50
2019-05-18T10:02:40.614Z,63.30
2019-05-18T10:05:08.809Z,63.00
2019-05-18T10:07:36.628Z,62.70
2019-05-18T10:10:05.137Z,61.20
2019-05-18T10:12:33.193Z,60.20
2019-05-18T10:15:00.824Z,60.80
2019-05-18T10:17:29.013Z,61.80
2019-05-18T10:19:56.686Z,62.80
2019-05-18T10:22:24.739Z,61.00
2019-05-18T10:24:52.109Z,61.00
2019-05-18T10:27:19.603Z,61.60
2019-05-18T10:29:47.163Z,60.30
2019-05-18T10:32:14.571Z,59.80
2019-05-18T10:34:42.049Z,62.10
2019-05-18T10:37:09.799Z,62.90
2019-05-18T10:39:38.773Z,60.30
2019-05-18T10:42:06.638Z,62.60
2019-05-18T10:44:34.138Z,61.30
2019-05-18T10:47:02.020Z,60.80
2019-05-18T10:49:29.458Z,58.20
2019-05-18T10:51:57.324Z,59.70
2019-05-18T10:54:24.662Z,60.80
2019-05-18T10:56:52.414Z,59.90
2019-05-18T10:59:20.296Z,59.30
2019-05-18T11:01:47.732Z,58.90
2019-05-18T11:04:15.638Z,59.30
2019-05-18T11:06:43.438Z,60.10
2019-05-18T11:09:11.250Z,60.30
2019-05-18T11:11:38.695Z,59.20
2019-05-18T11:14:06.445Z,59.30
2019-05-18T11:16:34.231Z,59.80
2019-05-18T11:19:02.008Z,58.50
2019-05-18T11:21:29.533Z,60.30
2019-05-18T11:23:57.311Z,59.50
2019-05-18T11:26:24.832Z,59.50
2019-05-18T11:28:52.328Z,59.20
2019-05-18T11:31:20.386Z,60.70
2019-05-18T11:33:47.915Z,59.50
2019-05-18T11:36:15.750Z,61.50
2019-05-18T11:38:43.370Z,58.50
2019-05-18T11:41:11.379Z,58.00
2019-05-18T11:43:39.246Z,58.60
2019-05-18T11:46:06.766Z,59.70
2019-05-18T11:48:34.224Z,58.20
2019-05-18T11:51:01.567Z,58.00
2019-05-18T11:53:29.872Z,57.40
2019-05-18T11:55:57.235Z,59.10
2019-05-18T11:58:24.999Z,58.90
2019-05-18T12:00:52.608Z,57.30
2019-05-18T12:03:20.411Z,58.40
2019-05-18T12:05:47.971Z,56.50
2019-05-18T12:08:15.737Z,57.90
2019-05-18T12:10:43.802Z,58.90
2019-05-18T12:13:11.702Z,56.60
2019-05-18T12:15:39.089Z,56.50
2019-05-18T12:18:06.710Z,59.00
2019-05-18T12:20:34.224Z,56.20
2019-05-18T12:23:01.673Z,55.40
2019-05-18T12:25:29.579Z,54.80
2019-05-18T12:27:57.020Z,57.50
2019-05-18T12:30:24.838Z,55.00
2019-05-18T12:32:52.310Z,56.50
2019-05-18T12:35:21.185Z,57.10
2019-05-18T12:37:48.532Z,56.10
2019-05-18T12:40:17.551Z,56.70
2019-05-18T12:42:45.073Z,56.20
2019-05-18T12:45:12.833Z,57.10
2019-05-18T12:47:41.508Z,56.70
2019-05-18T12:50:09.756Z,56.00
2019-05-18T12:52:37.577Z,60.00
2019-05-18T12:55:05.398Z,56.30
2019-05-18T12:57:33.258Z,56.10
2019-05-18T13:00:00.576Z,55.10
2019-05-18T13:02:28.589Z,56.10
2019-05-18T13:04:56.559Z,56.70
2019-05-18T13:07:24.358Z,55.30
2019-05-18T13:09:52.199Z,53.80
2019-05-18T13:12:19.943Z,53.70
2019-05-18T13:14:47.352Z,55.20
2019-05-18T13:17:14.733Z,53.50
2019-05-18T13:19:42.230Z,54.30
2019-05-18T13:22:09.878Z,54.70
2019-05-18T13:24:45.365Z,56.20
2019-05-18T13:27:07.569Z,53.80
2019-05-18T13:29:35.222Z,53.60
2019-05-18T13:32:02.891Z,53.50
2019-05-18T13:34:31.023Z,55.60
2019-05-18T13:36:59.654Z,54.00
2019-05-18T13:39:27.446Z,54.40
2019-05-18T13:41:54.957Z,56.40
2019-05-18T13:44:22.431Z,56.20
2019-05-18T13:46:49.737Z,56.00
2019-05-18T13:49:18.297Z,53.90
2019-05-18T13:51:46.033Z,52.90
2019-05-18T13:54:13.800Z,55.10
2019-05-18T13:56:41.564Z,53.90
2019-05-18T13:59:09.063Z,53.90
2019-05-18T14:01:36.402Z,53.80
2019-05-18T14:04:03.782Z,53.40
2019-05-18T14:06:31.584Z,52.90
2019-05-18T14:08:59.108Z,53.30
2019-05-18T14:11:26.685Z,53.20
2019-05-18T14:13:54.087Z,54.90
2019-05-18T14:16:21.587Z,54.30
2019-05-18T14:18:48.918Z,55.20
2019-05-18T14:21:16.299Z,54.80
2019-05-18T14:23:44.536Z,55.20
2019-05-18T14:26:11.875Z,54.90
2019-05-18T14:28:40.717Z,54.90
2019-05-18T14:31:08.347Z,52.10
2019-05-18T14:33:37.545Z,54.00
2019-05-18T14:36:05.382Z,57.10
2019-05-18T14:38:33.455Z,57.60
2019-05-18T14:41:01.204Z,58.20
2019-05-18T14:43:28.815Z,59.70
2019-05-18T14:45:56.748Z,61.30
2019-05-18T14:48:27.176Z,64.30
2019-05-18T14:50:55.601Z,66.80
2019-05-18T14:53:23.350Z,68.00
2019-05-18T14:55:51.178Z,68.80
2019-05-18T14:58:18.718Z,71.60
2019-05-18T15:00:48.382Z,68.90
2019-05-18T15:03:16.050Z,68.40
2019-05-18T15:05:43.549Z,72.60
2019-05-18T15:08:11.415Z,75.30
2019-05-18T15:10:38.815Z,77.50
2019-05-18T15:13:06.860Z,76.80
2019-05-18T15:15:34.432Z,76.90
2019-05-18T15:18:01.804Z,75.90
2019-05-18T15:20:29.863Z,76.60
2019-05-18T15:22:57.614Z,78.00
2019-05-18T15:25:25.033Z,77.70
2019-05-18T15:27:52.511Z,78.60
2019-05-18T15:30:20.429Z,79.10
2019-05-18T15:32:47.931Z,79.00
2019-05-18T15:35:16.121Z,79.00
2019-05-18T15:37:43.978Z,78.10
2019-05-18T15:40:11.957Z,78.70
2019-05-18T15:42:39.720Z,78.50
2019-05-18T15:45:07.326Z,79.00
2019-05-18T15:47:36.102Z,78.00
2019-05-18T15:50:04.222Z,76.80
2019-05-18T15:52:31.910Z,77.10
2019-05-18T15:54:59.959Z,77.40
2019-05-18T15:57:27.350Z,76.70
2019-05-18T15:59:55.229Z,77.10
2019-05-18T16:02:22.844Z,77.50
2019-05-18T16:04:50.662Z,79.10
2019-05-18T16:07:18.284Z,78.50
2019-05-18T16:09:46.065Z,77.90
2019-05-18T16:12:13.605Z,77.90
2019-05-18T16:14:41.168Z,77.60
2019-05-18T16:17:08.844Z,77.30
2019-05-18T16:19:36.204Z,75.60
2019-05-18T16:22:03.878Z,76.90
2019-05-18T16:24:31.567Z,75.90
2019-05-18T16:27:01.808Z,75.80
2019-05-18T16:29:29.436Z,75.90
2019-05-18T16:31:57.016Z,77.30
2019-05-18T16:34:24.557Z,77.60
2019-05-18T16:36:52.469Z,77.90
2019-05-18T16:39:19.899Z,78.40
2019-05-18T16:41:47.556Z,78.20
2019-05-18T16:44:15.023Z,79.50
2019-05-18T16:46:42.832Z,79.80
2019-05-18T16:49:10.368Z,80.00
2019-05-18T16:51:37.896Z,81.70
2019-05-18T16:54:05.910Z,80.90
2019-05-18T16:56:35.416Z,80.90
2019-05-18T16:59:03.002Z,80.40
2019-05-18T17:01:30.721Z,80.40
2019-05-18T17:03:58.351Z,80.90
2019-05-18T17:06:25.832Z,80.90
2019-05-18T17:08:53.842Z,81.20
2019-05-18T17:11:21.440Z,81.20
2019-05-18T17:13:48.886Z,81.10
2019-05-18T17:16:16.440Z,81.70
2019-05-18T17:18:44.073Z,81.10
2019-05-18T17:21:11.587Z,80.90
2019-05-18T17:23:39.090Z,78.80
2019-05-18T17:26:06.726Z,79.80
2019-05-18T17:28:34.732Z,80.90
2019-05-18T17:31:02.196Z,81.40
2019-05-18T17:33:29.796Z,82.60
2019-05-18T17:36:00.287Z,83.50
2019-05-18T17:38:28.108Z,83.90
2019-05-18T17:40:55.679Z,83.70
2019-05-18T17:43:23.496Z,83.70
2019-05-18T17:45:50.974Z,82.70
2019-05-18T17:48:18.437Z,83.00
2019-05-18T17:50:45.780Z,81.70
2019-05-18T17:53:13.281Z,81.60
2019-05-18T17:55:40.776Z,81.80
2019-05-18T17:58:09.512Z,82.20
2019-05-18T18:00:36.995Z,81.90
2019-05-18T18:03:04.473Z,81.90
2019-05-18T18:05:32.309Z,81.50
2019-05-18T18:08:00.135Z,82.50
2019-05-18T18:10:27.818Z,81.90
2019-05-18T18:12:55.745Z,81.80
2019-05-18T18:15:23.338Z,81.90
2019-05-18T18:17:50.839Z,82.20
2019-05-18T18:20:19.794Z,82.60
2019-05-18T18:22:47.324Z,82.50
2019-05-18T18:25:14.828Z,82.60
2019-05-18T18:27:42.301Z,82.40
2019-05-18T18:30:11.898Z,82.50
2019-05-18T18:32:39.587Z,82.90
2019-05-18T18:35:07.401Z,83.00
2019-05-18T18:37:34.788Z,81.90
2019-05-18T18:40:02.440Z,82.80
2019-05-18T18:42:30.279Z,83.90
2019-05-18T18:44:57.771Z,82.40
2019-05-18T18:47:26.265Z,81.80
2019-05-18T18:49:53.636Z,81.90
2019-05-18T18:52:21.125Z,82.40
2019-05-18T18:54:49.146Z,82.70
2019-05-18T18:57:16.491Z,82.80
2019-05-18T18:59:43.904Z,82.70
2019-05-18T19:02:11.580Z,82.70
2019-05-18T19:04:39.369Z,83.20
2019-05-18T19:07:09.084Z,83.00
2019-05-18T19:09:36.716Z,83.10
2019-05-18T19:12:04.206Z,84.00
2019-05-18T19:14:32.079Z,84.20
2019-05-18T19:16:59.416Z,84.50
2019-05-18T19:19:27.151Z,84.70
2019-05-18T19:21:54.951Z,84.40
2019-05-18T19:24:22.314Z,84.40
2019-05-18T19:26:49.995Z,83.90
2019-05-18T19:29:17.818Z,83.40
2019-05-18T19:31:45.664Z,83.60
2019-05-18T19:34:13.423Z,83.30
2019-05-18T19:36:41.036Z,83.50
2019-05-18T19:39:08.486Z,83.50
2019-05-18T19:41:36.562Z,84.10
2019-05-18T19:44:04.604Z,83.90
2019-05-18T19:46:31.999Z,83.70
2019-05-18T19:48:59.398Z,84.00
2019-05-18T19:51:28.193Z,84.10
2019-05-18T19:53:56.103Z,84.70
2019-05-18T19:56:23.448Z,84.50
2019-05-18T19:58:50.839Z,83.70
2019-05-18T20:01:18.188Z,83.90
2019-05-18T20:03:45.876Z,84.00
2019-05-18T20:06:13.363Z,84.10
2019-05-18T20:08:40.749Z,83.90
2019-05-18T20:11:08.452Z,84.10
2019-05-18T20:13:36.372Z,84.60
2019-05-18T20:16:04.108Z,84.40
2019-05-18T20:18:31.641Z,84.50
2019-05-18T20:20:59.146Z,84.30
2019-05-18T20:23:26.850Z,84.10
2019-05-18T20:25:54.327Z,84.50
2019-05-18T20:28:24.124Z,84.90
2019-05-18T20:30:51.569Z,84.90
2019-05-18T20:33:19.085Z,84.50
2019-05-18T20:35:47.027Z,84.90
2019-05-18T20:38:15.476Z,84.80
2019-05-18T20:40:42.884Z,85.00
2019-05-18T20:43:10.500Z,85.00
2019-05-18T20:45:37.992Z,86.30
2019-05-18T20:48:05.336Z,86.70
2019-05-18T20:50:32.832Z,86.40
2019-05-18T20:53:00.158Z,87.00
2019-05-18T20:55:27.994Z,87.40
2019-05-18T20:57:55.688Z,87.80
2019-05-18T21:00:23.200Z,87.70
2019-05-18T21:02:51.094Z,87.70
2019-05-18T21:05:18.418Z,87.80
2019-05-18T21:07:46.045Z,87.00
2019-05-18T21:10:13.853Z,87.50
2019-05-18T21:12:41.432Z,87.00
2019-05-18T21:15:09.767Z,86.90
2019-05-18T21:17:38.008Z,86.70
2019-05-18T21:20:05.604Z,86.60
2019-05-18T21:22:33.149Z,85.90
2019-05-18T21:25:00.910Z,85.90
2019-05-18T21:27:28.291Z,86.90
2019-05-18T21:29:55.960Z,87.10
2019-05-18T21:32:23.424Z,86.70
2019-05-18T21:34:50.657Z,86.40
2019-05-18T21:37:17.991Z,86.10
2019-05-18T21:39:46.143Z,85.90
2019-05-18T21:42:13.988Z,86.20
2019-05-18T21:44:41.462Z,86.40
2019-05-18T21:47:09.201Z,86.20
2019-05-18T21:49:36.869Z,85.40
2019-05-18T21:52:04.404Z,85.80
2019-05-18T21:54:32.421Z,85.70
2019-05-18T21:57:00.128Z,85.80
2019-05-18T21:59:27.522Z,85.50
2019-05-18T22:01:54.898Z,85.20
2019-05-18T22:04:22.852Z,85.40
2019-05-18T22:06:50.225Z,85.30
2019-05-18T22:09:17.987Z,85.40
2019-05-18T22:11:46.334Z,85.40
2019-05-18T22:14:14.401Z,84.90
2019-05-18T22:16:41.842Z,84.80
2019-05-18T22:19:09.338Z,84.20
2019-05-18T22:21:36.828Z,83.20
2019-05-18T22:24:05.508Z,83.30
2019-05-18T22:26:33.951Z,83.60
2019-05-18T22:29:01.471Z,83.00
2019-05-18T22:31:29.990Z,83.10
2019-05-18T22:33:57.467Z,82.60
2019-05-18T22:36:24.825Z,82.60
2019-05-18T22:38:52.245Z,82.70
2019-05-18T22:41:19.992Z,82.80
2019-05-18T22:43:48.086Z,83.90
2019-05-18T22:46:15.476Z,84.80
2019-05-18T22:48:42.822Z,84.90
2019-05-18T22:51:10.972Z,84.80
2019-05-18T22:53:38.385Z,84.10
2019-05-18T22:56:06.089Z,84.80
2019-05-18T22:58:34.375Z,85.10
2019-05-18T23:01:01.726Z,85.70
2019-05-18T23:03:29.564Z,86.20
2019-05-18T23:05:57.240Z,86.40
2019-05-18T23:08:26.026Z,86.40
2019-05-18T23:10:53.820Z,86.30
2019-05-18T23:13:21.640Z,86.20
2019-05-18T23:15:48.952Z,86.40
2019-05-18T23:18:16.346Z,86.40
2019-05-18T23:20:43.700Z,86.80
2019-05-18T23:23:11.179Z,86.80
2019-05-18T23:25:38.969Z,86.60
2019-05-18T23:28:06.342Z,87.20
2019-05-18T23:30:33.750Z,87.00
2019-05-18T23:33:01.236Z,87.70
2019-05-18T23:35:28.701Z,86.80
2019-05-18T23:37:56.436Z,87.00
2019-05-18T23:40:23.899Z,87.00
2019-05-18T23:42:51.361Z,87.00
2019-05-18T23:45:18.714Z,87.10
2019-05-18T23:47:46.111Z,87.30
2019-05-18T23:50:14.117Z,88.20
2019-05-18T23:52:41.636Z,88.00
2019-05-18T23:55:09.517Z,88.50
2019-05-18T23:57:36.877Z,88.80
